Terminal Aerodrome Forecast
Issued by NWS

Home | Current Version | Previous Version | Text Only | Print | Product List | Glossary On
Versions: 1 2 3 4 5 6 7 8 9 10 11 12 13 14 15 16 17 18 19 20 21 22 23 24
505
FTUS43 KDLH 230223 AAE
TAFBRD
TAF AMD
KBRD 230223Z 2302/2324 07007KT 1/2SM SN FZFG VV007
     FM230400 VRB03KT 1 1/2SM -SN OVC010
     FM230600 10004KT 3/4SM -SN OVC015
     FM231200 00000KT P6SM VCSH OVC025
     FM231500 31005KT P6SM BKN035
     FM232200 29006KT P6SM SCT035=

USA.gov is the U.S. government's official web portal to all federal, state and local government web resources and services.